sensor_id;sensor_type;location;lat;lon;timestamp;P1;durP1;ratioP1;P2;durP2;ratioP2
26319;SDS011;14024;52.226;5.200;2023-06-10T00:01:15;10.07;;;6.05;;
26319;SDS011;14024;52.226;5.200;2023-06-10T00:03:41;11.77;;;6.32;;
26319;SDS011;14024;52.226;5.200;2023-06-10T00:06:09;13.95;;;6.15;;
26319;SDS011;14024;52.226;5.200;2023-06-10T00:08:37;17.13;;;6.05;;
26319;SDS011;14024;52.226;5.200;2023-06-10T00:11:04;13.27;;;6.55;;
26319;SDS011;14024;52.226;5.200;2023-06-10T00:13:30;15.20;;;5.75;;
26319;SDS011;14024;52.226;5.200;2023-06-10T00:15:56;17.10;;;6.43;;
26319;SDS011;14024;52.226;5.200;2023-06-10T00:18:22;17.55;;;5.88;;
26319;SDS011;14024;52.226;5.200;2023-06-10T00:20:48;14.30;;;5.97;;
26319;SDS011;14024;52.226;5.200;2023-06-10T00:23:18;14.18;;;5.53;;
26319;SDS011;14024;52.226;5.200;2023-06-10T00:25:43;16.45;;;6.03;;
26319;SDS011;14024;52.226;5.200;2023-06-10T00:28:09;12.23;;;6.00;;
26319;SDS011;14024;52.226;5.200;2023-06-10T00:30:35;11.80;;;6.35;;
26319;SDS011;14024;52.226;5.200;2023-06-10T00:33:01;13.60;;;5.85;;
26319;SDS011;14024;52.226;5.200;2023-06-10T00:35:27;12.60;;;5.20;;
26319;SDS011;14024;52.226;5.200;2023-06-10T00:37:53;11.65;;;5.47;;
26319;SDS011;14024;52.226;5.200;2023-06-10T00:40:19;12.60;;;5.65;;
26319;SDS011;14024;52.226;5.200;2023-06-10T00:42:45;14.77;;;5.30;;
26319;SDS011;14024;52.226;5.200;2023-06-10T00:45:11;13.43;;;6.05;;
26319;SDS011;14024;52.226;5.200;2023-06-10T00:47:37;12.82;;;5.40;;
26319;SDS011;14024;52.226;5.200;2023-06-10T00:50:04;14.70;;;5.65;;
26319;SDS011;14024;52.226;5.200;2023-06-10T00:52:30;12.00;;;5.68;;
26319;SDS011;14024;52.226;5.200;2023-06-10T00:54:56;12.50;;;5.68;;
26319;SDS011;14024;52.226;5.200;2023-06-10T00:57:24;9.40;;;5.57;;
26319;SDS011;14024;52.226;5.200;2023-06-10T00:59:50;16.50;;;5.80;;
26319;SDS011;14024;52.226;5.200;2023-06-10T01:02:16;11.43;;;5.63;;
26319;SDS011;14024;52.226;5.200;2023-06-10T01:04:42;8.90;;;5.35;;
26319;SDS011;14024;52.226;5.200;2023-06-10T01:12:25;11.88;;;6.03;;
26319;SDS011;14024;52.226;5.200;2023-06-10T01:14:52;11.05;;;6.00;;
26319;SDS011;14024;52.226;5.200;2023-06-10T01:17:19;9.45;;;5.15;;
26319;SDS011;14024;52.226;5.200;2023-06-10T01:19:52;10.75;;;5.65;;
26319;SDS011;14024;52.226;5.200;2023-06-10T01:22:20;8.52;;;5.20;;
26319;SDS011;14024;52.226;5.200;2023-06-10T01:24:47;13.68;;;6.07;;
26319;SDS011;14024;52.226;5.200;2023-06-10T01:27:15;14.95;;;5.68;;
26319;SDS011;14024;52.226;5.200;2023-06-10T01:29:45;15.80;;;6.70;;
26319;SDS011;14024;52.226;5.200;2023-06-10T01:32:33;13.75;;;6.00;;
26319;SDS011;14024;52.226;5.200;2023-06-10T01:35:01;9.45;;;5.70;;
26319;SDS011;14024;52.226;5.200;2023-06-10T01:37:27;13.30;;;5.68;;
26319;SDS011;14024;52.226;5.200;2023-06-10T01:39:57;15.48;;;6.55;;
26319;SDS011;14024;52.226;5.200;2023-06-10T01:42:24;11.82;;;5.95;;
26319;SDS011;14024;52.226;5.200;2023-06-10T01:44:50;12.20;;;5.55;;
26319;SDS011;14024;52.226;5.200;2023-06-10T01:47:16;10.77;;;6.43;;
26319;SDS011;14024;52.226;5.200;2023-06-10T01:49:42;16.60;;;5.97;;
26319;SDS011;14024;52.226;5.200;2023-06-10T01:52:08;9.80;;;5.57;;
26319;SDS011;14024;52.226;5.200;2023-06-10T01:54:35;13.55;;;5.80;;
26319;SDS011;14024;52.226;5.200;2023-06-10T01:57:01;13.38;;;5.78;;
26319;SDS011;14024;52.226;5.200;2023-06-10T01:59:27;12.57;;;6.18;;
26319;SDS011;14024;52.226;5.200;2023-06-10T02:01:53;12.70;;;6.05;;
26319;SDS011;14024;52.226;5.200;2023-06-10T02:04:19;12.13;;;5.53;;
26319;SDS011;14024;52.226;5.200;2023-06-10T02:06:45;12.23;;;5.55;;
26319;SDS011;14024;52.226;5.200;2023-06-10T02:09:11;11.20;;;6.63;;
26319;SDS011;14024;52.226;5.200;2023-06-10T02:11:37;12.13;;;6.25;;
26319;SDS011;14024;52.226;5.200;2023-06-10T02:14:03;10.45;;;6.18;;
26319;SDS011;14024;52.226;5.200;2023-06-10T02:16:29;12.38;;;6.50;;
26319;SDS011;14024;52.226;5.200;2023-06-10T02:18:56;13.07;;;6.28;;
26319;SDS011;14024;52.226;5.200;2023-06-10T02:21:22;11.27;;;6.93;;
26319;SDS011;14024;52.226;5.200;2023-06-10T02:23:48;10.07;;;6.35;;
26319;SDS011;14024;52.226;5.200;2023-06-10T02:26:14;11.68;;;6.20;;
26319;SDS011;14024;52.226;5.200;2023-06-10T02:28:43;23.10;;;6.80;;
26319;SDS011;14024;52.226;5.200;2023-06-10T02:31:09;11.43;;;5.75;;
26319;SDS011;14024;52.226;5.200;2023-06-10T02:33:35;16.88;;;6.75;;
26319;SDS011;14024;52.226;5.200;2023-06-10T02:36:05;9.82;;;5.93;;
26319;SDS011;14024;52.226;5.200;2023-06-10T02:38:31;14.00;;;6.53;;
26319;SDS011;14024;52.226;5.200;2023-06-10T02:40:57;14.75;;;6.28;;
26319;SDS011;14024;52.226;5.200;2023-06-10T02:43:23;11.77;;;6.38;;
26319;SDS011;14024;52.226;5.200;2023-06-10T02:45:49;11.35;;;6.40;;
26319;SDS011;14024;52.226;5.200;2023-06-10T02:48:15;11.15;;;6.38;;
26319;SDS011;14024;52.226;5.200;2023-06-10T02:50:41;14.23;;;6.43;;
26319;SDS011;14024;52.226;5.200;2023-06-10T02:53:07;12.18;;;6.18;;
26319;SDS011;14024;52.226;5.200;2023-06-10T02:55:33;15.43;;;6.13;;
26319;SDS011;14024;52.226;5.200;2023-06-10T02:58:00;11.23;;;6.47;;
26319;SDS011;14024;52.226;5.200;2023-06-10T03:00:26;17.00;;;6.53;;
26319;SDS011;14024;52.226;5.200;2023-06-10T03:02:53;14.80;;;6.15;;
26319;SDS011;14024;52.226;5.200;2023-06-10T03:05:22;14.25;;;7.25;;
26319;SDS011;14024;52.226;5.200;2023-06-10T03:07:48;12.50;;;6.60;;
26319;SDS011;14024;52.226;5.200;2023-06-10T03:10:14;10.30;;;6.30;;
26319;SDS011;14024;52.226;5.200;2023-06-10T03:12:40;23.80;;;6.75;;
26319;SDS011;14024;52.226;5.200;2023-06-10T03:15:06;12.68;;;6.65;;
26319;SDS011;14024;52.226;5.200;2023-06-10T03:17:33;10.95;;;6.38;;
26319;SDS011;14024;52.226;5.200;2023-06-10T03:19:58;15.90;;;6.80;;
26319;SDS011;14024;52.226;5.200;2023-06-10T03:22:24;14.48;;;6.72;;
26319;SDS011;14024;52.226;5.200;2023-06-10T03:24:50;13.32;;;6.63;;
26319;SDS011;14024;52.226;5.200;2023-06-10T03:27:18;13.02;;;6.38;;
26319;SDS011;14024;52.226;5.200;2023-06-10T03:29:44;11.73;;;6.65;;
26319;SDS011;14024;52.226;5.200;2023-06-10T03:32:10;10.82;;;6.60;;
26319;SDS011;14024;52.226;5.200;2023-06-10T03:34:37;14.95;;;6.13;;
26319;SDS011;14024;52.226;5.200;2023-06-10T03:37:03;14.48;;;7.28;;
26319;SDS011;14024;52.226;5.200;2023-06-10T03:39:30;13.32;;;6.65;;
26319;SDS011;14024;52.226;5.200;2023-06-10T03:41:56;12.82;;;6.72;;
26319;SDS011;14024;52.226;5.200;2023-06-10T03:44:22;16.65;;;6.55;;
26319;SDS011;14024;52.226;5.200;2023-06-10T03:46:48;11.57;;;6.88;;
26319;SDS011;14024;52.226;5.200;2023-06-10T03:49:14;11.30;;;6.55;;
26319;SDS011;14024;52.226;5.200;2023-06-10T03:51:40;11.85;;;6.45;;
26319;SDS011;14024;52.226;5.200;2023-06-10T03:54:06;15.98;;;7.72;;
26319;SDS011;14024;52.226;5.200;2023-06-10T03:56:32;15.73;;;7.00;;
26319;SDS011;14024;52.226;5.200;2023-06-10T03:58:58;12.40;;;6.15;;
26319;SDS011;14024;52.226;5.200;2023-06-10T04:01:24;13.07;;;6.57;;
26319;SDS011;14024;52.226;5.200;2023-06-10T04:03:50;12.82;;;7.05;;
26319;SDS011;14024;52.226;5.200;2023-06-10T04:06:19;15.05;;;6.75;;
26319;SDS011;14024;52.226;5.200;2023-06-10T04:08:45;15.45;;;6.68;;
26319;SDS011;14024;52.226;5.200;2023-06-10T04:11:11;11.93;;;6.43;;
26319;SDS011;14024;52.226;5.200;2023-06-10T04:13:37;14.85;;;7.15;;
26319;SDS011;14024;52.226;5.200;2023-06-10T04:16:03;13.70;;;6.75;;
26319;SDS011;14024;52.226;5.200;2023-06-10T04:18:29;14.65;;;6.60;;
26319;SDS011;14024;52.226;5.200;2023-06-10T04:20:55;17.65;;;6.30;;
26319;SDS011;14024;52.226;5.200;2023-06-10T04:23:22;16.58;;;6.95;;
26319;SDS011;14024;52.226;5.200;2023-06-10T04:25:48;20.23;;;7.63;;
26319;SDS011;14024;52.226;5.200;2023-06-10T04:28:14;12.93;;;6.20;;
26319;SDS011;14024;52.226;5.200;2023-06-10T04:30:40;11.82;;;7.18;;
26319;SDS011;14024;52.226;5.200;2023-06-10T04:33:06;16.63;;;6.95;;
26319;SDS011;14024;52.226;5.200;2023-06-10T04:35:34;16.27;;;7.43;;
26319;SDS011;14024;52.226;5.200;2023-06-10T04:38:00;23.83;;;8.13;;
26319;SDS011;14024;52.226;5.200;2023-06-10T04:40:29;16.92;;;7.30;;
26319;SDS011;14024;52.226;5.200;2023-06-10T04:42:55;20.40;;;7.25;;
26319;SDS011;14024;52.226;5.200;2023-06-10T04:45:21;15.50;;;6.68;;
26319;SDS011;14024;52.226;5.200;2023-06-10T04:47:47;12.50;;;6.70;;
26319;SDS011;14024;52.226;5.200;2023-06-10T04:50:13;13.85;;;7.32;;
26319;SDS011;14024;52.226;5.200;2023-06-10T04:52:40;14.65;;;7.30;;
26319;SDS011;14024;52.226;5.200;2023-06-10T04:55:06;11.73;;;6.90;;
26319;SDS011;14024;52.226;5.200;2023-06-10T04:57:33;14.00;;;7.47;;
26319;SDS011;14024;52.226;5.200;2023-06-10T04:59:59;11.85;;;6.95;;
26319;SDS011;14024;52.226;5.200;2023-06-10T05:02:25;15.65;;;7.45;;
26319;SDS011;14024;52.226;5.200;2023-06-10T05:04:51;15.05;;;6.82;;
26319;SDS011;14024;52.226;5.200;2023-06-10T05:07:21;12.07;;;7.03;;
26319;SDS011;14024;52.226;5.200;2023-06-10T05:09:47;13.75;;;7.68;;
26319;SDS011;14024;52.226;5.200;2023-06-10T05:12:13;14.55;;;7.00;;
26319;SDS011;14024;52.226;5.200;2023-06-10T05:14:39;14.52;;;7.03;;
26319;SDS011;14024;52.226;5.200;2023-06-10T05:17:05;13.60;;;6.82;;
26319;SDS011;14024;52.226;5.200;2023-06-10T05:19:31;17.15;;;7.93;;
26319;SDS011;14024;52.226;5.200;2023-06-10T05:21:57;15.70;;;7.13;;
26319;SDS011;14024;52.226;5.200;2023-06-10T05:24:23;16.15;;;7.18;;
26319;SDS011;14024;52.226;5.200;2023-06-10T05:26:49;15.10;;;7.05;;
26319;SDS011;14024;52.226;5.200;2023-06-10T05:29:15;19.98;;;7.70;;
26319;SDS011;14024;52.226;5.200;2023-06-10T05:31:41;14.15;;;7.32;;
26319;SDS011;14024;52.226;5.200;2023-06-10T05:34:07;17.92;;;7.53;;
26319;SDS011;14024;52.226;5.200;2023-06-10T05:36:33;15.45;;;7.97;;
26319;SDS011;14024;52.226;5.200;2023-06-10T05:38:59;16.17;;;7.97;;
26319;SDS011;14024;52.226;5.200;2023-06-10T05:41:25;15.88;;;7.25;;
26319;SDS011;14024;52.226;5.200;2023-06-10T05:43:51;13.88;;;7.50;;
26319;SDS011;14024;52.226;5.200;2023-06-10T05:46:17;13.75;;;8.07;;
26319;SDS011;14024;52.226;5.200;2023-06-10T05:48:43;16.40;;;7.60;;
26319;SDS011;14024;52.226;5.200;2023-06-10T05:51:09;14.00;;;8.05;;
26319;SDS011;14024;52.226;5.200;2023-06-10T05:53:35;13.77;;;7.88;;
26319;SDS011;14024;52.226;5.200;2023-06-10T05:56:01;18.48;;;8.23;;
26319;SDS011;14024;52.226;5.200;2023-06-10T05:58:28;15.57;;;7.85;;
26319;SDS011;14024;52.226;5.200;2023-06-10T06:00:54;12.52;;;7.25;;
26319;SDS011;14024;52.226;5.200;2023-06-10T06:03:20;15.88;;;7.72;;
26319;SDS011;14024;52.226;5.200;2023-06-10T06:05:46;17.85;;;8.13;;
26319;SDS011;14024;52.226;5.200;2023-06-10T06:08:12;15.65;;;7.80;;
26319;SDS011;14024;52.226;5.200;2023-06-10T06:10:44;16.42;;;7.72;;
26319;SDS011;14024;52.226;5.200;2023-06-10T06:13:10;12.95;;;7.70;;
26319;SDS011;14024;52.226;5.200;2023-06-10T06:15:36;21.25;;;8.65;;
26319;SDS011;14024;52.226;5.200;2023-06-10T06:18:02;12.25;;;7.72;;
26319;SDS011;14024;52.226;5.200;2023-06-10T06:20:28;13.10;;;8.05;;
26319;SDS011;14024;52.226;5.200;2023-06-10T06:22:54;18.38;;;7.40;;
26319;SDS011;14024;52.226;5.200;2023-06-10T06:25:20;14.20;;;7.30;;
26319;SDS011;14024;52.226;5.200;2023-06-10T06:27:46;14.40;;;8.05;;
26319;SDS011;14024;52.226;5.200;2023-06-10T06:30:12;12.68;;;7.40;;
26319;SDS011;14024;52.226;5.200;2023-06-10T06:32:38;15.82;;;8.57;;
26319;SDS011;14024;52.226;5.200;2023-06-10T06:35:04;15.13;;;7.47;;
26319;SDS011;14024;52.226;5.200;2023-06-10T06:37:32;16.20;;;7.40;;
26319;SDS011;14024;52.226;5.200;2023-06-10T06:39:58;13.93;;;8.20;;
26319;SDS011;14024;52.226;5.200;2023-06-10T06:42:24;12.57;;;7.63;;
26319;SDS011;14024;52.226;5.200;2023-06-10T06:44:50;13.45;;;8.15;;
26319;SDS011;14024;52.226;5.200;2023-06-10T06:47:16;16.85;;;7.47;;
26319;SDS011;14024;52.226;5.200;2023-06-10T06:49:45;13.88;;;7.43;;
26319;SDS011;14024;52.226;5.200;2023-06-10T06:52:11;22.13;;;8.40;;
26319;SDS011;14024;52.226;5.200;2023-06-10T06:54:37;17.38;;;7.78;;
26319;SDS011;14024;52.226;5.200;2023-06-10T06:57:03;13.55;;;7.80;;
26319;SDS011;14024;52.226;5.200;2023-06-10T06:59:30;15.40;;;7.85;;
26319;SDS011;14024;52.226;5.200;2023-06-10T07:01:56;14.00;;;7.13;;
26319;SDS011;14024;52.226;5.200;2023-06-10T07:04:22;18.27;;;7.70;;
26319;SDS011;14024;52.226;5.200;2023-06-10T07:06:48;12.50;;;7.60;;
26319;SDS011;14024;52.226;5.200;2023-06-10T07:09:14;11.82;;;7.22;;
26319;SDS011;14024;52.226;5.200;2023-06-10T07:11:40;13.43;;;7.93;;
26319;SDS011;14024;52.226;5.200;2023-06-10T07:14:06;17.77;;;8.05;;
26319;SDS011;14024;52.226;5.200;2023-06-10T07:16:32;13.60;;;7.55;;
26319;SDS011;14024;52.226;5.200;2023-06-10T07:18:59;14.70;;;7.80;;
26319;SDS011;14024;52.226;5.200;2023-06-10T07:21:24;14.20;;;7.75;;
26319;SDS011;14024;52.226;5.200;2023-06-10T07:23:51;17.98;;;7.03;;
26319;SDS011;14024;52.226;5.200;2023-06-10T07:26:18;10.75;;;6.57;;
26319;SDS011;14024;52.226;5.200;2023-06-10T07:28:45;14.27;;;7.28;;
26319;SDS011;14024;52.226;5.200;2023-06-10T07:31:11;10.73;;;7.35;;
26319;SDS011;14024;52.226;5.200;2023-06-10T07:33:37;13.25;;;7.45;;
26319;SDS011;14024;52.226;5.200;2023-06-10T07:36:06;16.17;;;7.60;;
26319;SDS011;14024;52.226;5.200;2023-06-10T07:38:33;12.25;;;6.72;;
26319;SDS011;14024;52.226;5.200;2023-06-10T07:40:59;16.00;;;8.05;;
26319;SDS011;14024;52.226;5.200;2023-06-10T07:43:25;13.40;;;7.40;;
26319;SDS011;14024;52.226;5.200;2023-06-10T07:45:51;11.55;;;7.13;;
26319;SDS011;14024;52.226;5.200;2023-06-10T07:48:17;13.18;;;7.18;;
26319;SDS011;14024;52.226;5.200;2023-06-10T07:50:43;12.55;;;6.90;;
26319;SDS011;14024;52.226;5.200;2023-06-10T07:53:09;12.48;;;7.25;;
26319;SDS011;14024;52.226;5.200;2023-06-10T07:55:35;12.52;;;7.35;;
26319;SDS011;14024;52.226;5.200;2023-06-10T07:58:01;13.52;;;7.03;;
26319;SDS011;14024;52.226;5.200;2023-06-10T08:00:27;12.98;;;7.80;;
26319;SDS011;14024;52.226;5.200;2023-06-10T08:02:53;15.43;;;7.25;;
26319;SDS011;14024;52.226;5.200;2023-06-10T08:05:20;13.57;;;7.70;;
26319;SDS011;14024;52.226;5.200;2023-06-10T08:07:46;16.70;;;7.10;;
26319;SDS011;14024;52.226;5.200;2023-06-10T08:10:12;14.90;;;7.45;;
26319;SDS011;14024;52.226;5.200;2023-06-10T08:12:38;11.05;;;7.07;;
26319;SDS011;14024;52.226;5.200;2023-06-10T08:15:05;11.73;;;6.97;;
26319;SDS011;14024;52.226;5.200;2023-06-10T08:17:31;14.77;;;7.15;;
26319;SDS011;14024;52.226;5.200;2023-06-10T08:19:57;10.95;;;6.40;;
26319;SDS011;14024;52.226;5.200;2023-06-10T08:22:23;16.00;;;7.20;;
26319;SDS011;14024;52.226;5.200;2023-06-10T08:24:49;13.93;;;6.97;;
26319;SDS011;14024;52.226;5.200;2023-06-10T08:27:15;16.23;;;7.13;;
26319;SDS011;14024;52.226;5.200;2023-06-10T08:29:41;14.82;;;7.18;;
26319;SDS011;14024;52.226;5.200;2023-06-10T08:32:07;12.80;;;7.00;;
26319;SDS011;14024;52.226;5.200;2023-06-10T08:34:33;12.85;;;7.78;;
26319;SDS011;14024;52.226;5.200;2023-06-10T08:37:03;11.35;;;6.93;;
26319;SDS011;14024;52.226;5.200;2023-06-10T08:39:29;13.95;;;6.88;;
26319;SDS011;14024;52.226;5.200;2023-06-10T08:42:05;13.75;;;6.70;;
26319;SDS011;14024;52.226;5.200;2023-06-10T08:44:35;21.73;;;7.22;;
26319;SDS011;14024;52.226;5.200;2023-06-10T08:47:14;12.13;;;7.43;;
26319;SDS011;14024;52.226;5.200;2023-06-10T08:49:45;9.80;;;6.75;;
26319;SDS011;14024;52.226;5.200;2023-06-10T08:52:13;13.15;;;7.18;;
26319;SDS011;14024;52.226;5.200;2023-06-10T08:54:40;12.00;;;7.07;;
26319;SDS011;14024;52.226;5.200;2023-06-10T08:57:08;12.73;;;6.70;;
26319;SDS011;14024;52.226;5.200;2023-06-10T08:59:34;12.93;;;7.05;;
26319;SDS011;14024;52.226;5.200;2023-06-10T09:02:00;13.50;;;7.13;;
26319;SDS011;14024;52.226;5.200;2023-06-10T09:04:26;14.57;;;7.22;;
26319;SDS011;14024;52.226;5.200;2023-06-10T09:06:53;15.15;;;6.65;;
26319;SDS011;14024;52.226;5.200;2023-06-10T09:09:20;9.55;;;7.20;;
26319;SDS011;14024;52.226;5.200;2023-06-10T09:11:46;10.10;;;6.32;;
26319;SDS011;14024;52.226;5.200;2023-06-10T09:14:13;9.82;;;6.05;;
26319;SDS011;14024;52.226;5.200;2023-06-10T09:16:39;16.83;;;7.15;;
26319;SDS011;14024;52.226;5.200;2023-06-10T09:19:06;10.40;;;6.55;;
26319;SDS011;14024;52.226;5.200;2023-06-10T09:21:35;11.20;;;6.90;;
26319;SDS011;14024;52.226;5.200;2023-06-10T09:24:01;14.20;;;7.18;;
26319;SDS011;14024;52.226;5.200;2023-06-10T09:26:30;9.38;;;6.60;;
26319;SDS011;14024;52.226;5.200;2023-06-10T09:29:06;11.52;;;6.90;;
26319;SDS011;14024;52.226;5.200;2023-06-10T09:31:37;10.95;;;6.95;;
26319;SDS011;14024;52.226;5.200;2023-06-10T09:34:14;15.70;;;6.78;;
26319;SDS011;14024;52.226;5.200;2023-06-10T09:36:42;9.45;;;6.50;;
26319;SDS011;14024;52.226;5.200;2023-06-10T09:39:15;10.55;;;6.38;;
26319;SDS011;14024;52.226;5.200;2023-06-10T09:41:41;10.73;;;7.32;;
26319;SDS011;14024;52.226;5.200;2023-06-10T09:44:14;12.15;;;7.18;;
26319;SDS011;14024;52.226;5.200;2023-06-10T09:46:40;15.50;;;7.43;;
26319;SDS011;14024;52.226;5.200;2023-06-10T09:49:07;12.45;;;7.35;;
26319;SDS011;14024;52.226;5.200;2023-06-10T09:51:33;13.48;;;6.55;;
26319;SDS011;14024;52.226;5.200;2023-06-10T09:53:59;12.48;;;6.68;;
26319;SDS011;14024;52.226;5.200;2023-06-10T09:56:34;8.38;;;6.60;;
26319;SDS011;14024;52.226;5.200;2023-06-10T09:59:00;12.30;;;6.60;;
26319;SDS011;14024;52.226;5.200;2023-06-10T10:01:26;11.55;;;7.40;;
26319;SDS011;14024;52.226;5.200;2023-06-10T10:03:52;14.20;;;6.25;;
26319;SDS011;14024;52.226;5.200;2023-06-10T10:06:19;8.32;;;6.30;;
26319;SDS011;14024;52.226;5.200;2023-06-10T10:08:46;11.95;;;6.63;;
26319;SDS011;14024;52.226;5.200;2023-06-10T10:11:12;10.32;;;6.55;;
26319;SDS011;14024;52.226;5.200;2023-06-10T10:13:38;11.40;;;6.75;;
26319;SDS011;14024;52.226;5.200;2023-06-10T10:16:06;13.52;;;7.15;;
26319;SDS011;14024;52.226;5.200;2023-06-10T10:18:36;15.70;;;6.25;;
26319;SDS011;14024;52.226;5.200;2023-06-10T10:21:05;9.00;;;6.07;;
26319;SDS011;14024;52.226;5.200;2023-06-10T10:23:34;13.98;;;7.25;;
26319;SDS011;14024;52.226;5.200;2023-06-10T10:26:00;11.65;;;6.32;;
26319;SDS011;14024;52.226;5.200;2023-06-10T10:28:34;11.43;;;6.55;;
26319;SDS011;14024;52.226;5.200;2023-06-10T10:31:05;10.35;;;6.30;;
26319;SDS011;14024;52.226;5.200;2023-06-10T10:36:21;9.27;;;6.38;;
26319;SDS011;14024;52.226;5.200;2023-06-10T10:38:47;13.75;;;6.57;;
26319;SDS011;14024;52.226;5.200;2023-06-10T10:41:14;11.20;;;6.68;;
26319;SDS011;14024;52.226;5.200;2023-06-10T10:43:41;9.15;;;6.32;;
26319;SDS011;14024;52.226;5.200;2023-06-10T10:46:14;9.13;;;5.60;;
26319;SDS011;14024;52.226;5.200;2023-06-10T10:48:42;8.93;;;6.10;;
26319;SDS011;14024;52.226;5.200;2023-06-10T10:51:08;9.55;;;6.07;;
26319;SDS011;14024;52.226;5.200;2023-06-10T10:53:36;8.30;;;6.00;;
26319;SDS011;14024;52.226;5.200;2023-06-10T10:56:15;10.73;;;6.22;;
26319;SDS011;14024;52.226;5.200;2023-06-10T10:59:04;15.23;;;6.72;;
26319;SDS011;14024;52.226;5.200;2023-06-10T11:01:42;9.10;;;6.00;;
26319;SDS011;14024;52.226;5.200;2023-06-10T11:04:11;10.82;;;5.93;;
26319;SDS011;14024;52.226;5.200;2023-06-10T11:06:37;14.00;;;6.07;;
26319;SDS011;14024;52.226;5.200;2023-06-10T11:11:51;10.00;;;5.97;;
26319;SDS011;14024;52.226;5.200;2023-06-10T11:14:26;9.73;;;6.22;;
26319;SDS011;14024;52.226;5.200;2023-06-10T11:16:53;11.45;;;6.30;;
26319;SDS011;14024;52.226;5.200;2023-06-10T11:19:31;14.43;;;6.07;;
26319;SDS011;14024;52.226;5.200;2023-06-10T11:22:02;8.27;;;5.32;;
26319;SDS011;14024;52.226;5.200;2023-06-10T11:24:29;10.00;;;6.13;;
26319;SDS011;14024;52.226;5.200;2023-06-10T11:26:55;11.80;;;6.15;;
26319;SDS011;14024;52.226;5.200;2023-06-10T11:29:47;15.27;;;5.78;;
26319;SDS011;14024;52.226;5.200;2023-06-10T11:32:20;11.90;;;6.57;;
26319;SDS011;14024;52.226;5.200;2023-06-10T11:34:51;14.82;;;5.60;;
26319;SDS011;14024;52.226;5.200;2023-06-10T11:37:18;7.63;;;6.22;;
26319;SDS011;14024;52.226;5.200;2023-06-10T11:39:44;8.88;;;5.38;;
26319;SDS011;14024;52.226;5.200;2023-06-10T11:42:10;14.23;;;5.70;;
26319;SDS011;14024;52.226;5.200;2023-06-10T11:44:36;9.80;;;5.82;;
26319;SDS011;14024;52.226;5.200;2023-06-10T11:47:03;9.68;;;5.78;;
26319;SDS011;14024;52.226;5.200;2023-06-10T11:49:29;13.90;;;6.45;;
26319;SDS011;14024;52.226;5.200;2023-06-10T11:51:55;8.88;;;6.05;;
26319;SDS011;14024;52.226;5.200;2023-06-10T11:54:21;9.85;;;5.82;;
26319;SDS011;14024;52.226;5.200;2023-06-10T11:56:47;8.23;;;5.80;;
26319;SDS011;14024;52.226;5.200;2023-06-10T11:59:13;7.45;;;5.40;;
26319;SDS011;14024;52.226;5.200;2023-06-10T12:01:45;8.45;;;5.82;;
26319;SDS011;14024;52.226;5.200;2023-06-10T12:04:15;10.70;;;6.03;;
26319;SDS011;14024;52.226;5.200;2023-06-10T12:06:47;12.10;;;6.25;;
26319;SDS011;14024;52.226;5.200;2023-06-10T12:11:45;10.75;;;5.72;;
26319;SDS011;14024;52.226;5.200;2023-06-10T12:14:11;11.52;;;5.68;;
26319;SDS011;14024;52.226;5.200;2023-06-10T12:16:37;10.45;;;6.20;;
26319;SDS011;14024;52.226;5.200;2023-06-10T12:19:04;7.90;;;5.35;;
26319;SDS011;14024;52.226;5.200;2023-06-10T12:21:32;10.13;;;5.90;;
26319;SDS011;14024;52.226;5.200;2023-06-10T12:29:26;13.35;;;6.97;;
26319;SDS011;14024;52.226;5.200;2023-06-10T12:31:58;10.07;;;6.43;;
26319;SDS011;14024;52.226;5.200;2023-06-10T12:34:29;8.00;;;6.13;;
26319;SDS011;14024;52.226;5.200;2023-06-10T12:36:55;11.35;;;5.82;;
26319;SDS011;14024;52.226;5.200;2023-06-10T12:39:21;10.70;;;6.00;;
26319;SDS011;14024;52.226;5.200;2023-06-10T12:41:48;9.43;;;5.70;;
26319;SDS011;14024;52.226;5.200;2023-06-10T12:44:14;7.97;;;6.03;;
26319;SDS011;14024;52.226;5.200;2023-06-10T12:46:40;10.25;;;6.28;;
26319;SDS011;14024;52.226;5.200;2023-06-10T12:49:06;9.07;;;5.72;;
26319;SDS011;14024;52.226;5.200;2023-06-10T12:51:32;11.52;;;6.43;;
26319;SDS011;14024;52.226;5.200;2023-06-10T12:54:02;9.13;;;5.50;;
26319;SDS011;14024;52.226;5.200;2023-06-10T12:56:28;10.63;;;5.93;;
26319;SDS011;14024;52.226;5.200;2023-06-10T12:58:54;10.02;;;5.80;;
26319;SDS011;14024;52.226;5.200;2023-06-10T13:01:20;9.00;;;6.03;;
26319;SDS011;14024;52.226;5.200;2023-06-10T13:03:46;15.05;;;5.93;;
26319;SDS011;14024;52.226;5.200;2023-06-10T13:06:12;9.27;;;5.90;;
26319;SDS011;14024;52.226;5.200;2023-06-10T13:08:38;8.80;;;5.57;;
26319;SDS011;14024;52.226;5.200;2023-06-10T13:11:04;14.35;;;5.80;;
26319;SDS011;14024;52.226;5.200;2023-06-10T13:13:30;11.50;;;5.85;;
26319;SDS011;14024;52.226;5.200;2023-06-10T13:15:56;8.35;;;6.25;;
26319;SDS011;14024;52.226;5.200;2023-06-10T13:18:22;7.03;;;5.63;;
26319;SDS011;14024;52.226;5.200;2023-06-10T13:20:48;7.55;;;5.63;;
26319;SDS011;14024;52.226;5.200;2023-06-10T13:23:14;18.13;;;5.70;;
26319;SDS011;14024;52.226;5.200;2023-06-10T13:25:41;9.63;;;6.20;;
26319;SDS011;14024;52.226;5.200;2023-06-10T13:28:09;7.65;;;5.57;;
26319;SDS011;14024;52.226;5.200;2023-06-10T13:30:36;7.47;;;5.65;;
26319;SDS011;14024;52.226;5.200;2023-06-10T13:33:02;8.52;;;6.13;;
26319;SDS011;14024;52.226;5.200;2023-06-10T13:35:28;11.32;;;5.68;;
26319;SDS011;14024;52.226;5.200;2023-06-10T13:37:54;11.43;;;5.72;;
26319;SDS011;14024;52.226;5.200;2023-06-10T13:40:20;11.90;;;6.13;;
26319;SDS011;14024;52.226;5.200;2023-06-10T13:42:47;9.27;;;5.90;;
26319;SDS011;14024;52.226;5.200;2023-06-10T13:45:15;10.90;;;5.65;;
26319;SDS011;14024;52.226;5.200;2023-06-10T13:47:42;8.25;;;5.95;;
26319;SDS011;14024;52.226;5.200;2023-06-10T13:50:08;12.18;;;6.20;;
26319;SDS011;14024;52.226;5.200;2023-06-10T13:52:34;11.48;;;6.05;;
26319;SDS011;14024;52.226;5.200;2023-06-10T13:55:00;10.02;;;5.97;;
26319;SDS011;14024;52.226;5.200;2023-06-10T13:57:26;10.25;;;5.85;;
26319;SDS011;14024;52.226;5.200;2023-06-10T13:59:52;13.20;;;5.93;;
26319;SDS011;14024;52.226;5.200;2023-06-10T14:02:18;7.28;;;5.68;;
26319;SDS011;14024;52.226;5.200;2023-06-10T14:04:45;9.00;;;5.43;;
26319;SDS011;14024;52.226;5.200;2023-06-10T14:07:12;9.63;;;5.72;;
26319;SDS011;14024;52.226;5.200;2023-06-10T14:09:38;12.13;;;5.80;;
26319;SDS011;14024;52.226;5.200;2023-06-10T14:12:04;5.93;;;5.32;;
26319;SDS011;14024;52.226;5.200;2023-06-10T14:14:30;10.82;;;5.63;;
26319;SDS011;14024;52.226;5.200;2023-06-10T14:16:59;14.27;;;6.40;;
26319;SDS011;14024;52.226;5.200;2023-06-10T14:19:25;10.90;;;5.47;;
26319;SDS011;14024;52.226;5.200;2023-06-10T14:21:51;15.23;;;5.68;;
26319;SDS011;14024;52.226;5.200;2023-06-10T14:24:18;11.15;;;5.68;;
26319;SDS011;14024;52.226;5.200;2023-06-10T14:26:44;10.25;;;5.55;;
26319;SDS011;14024;52.226;5.200;2023-06-10T14:29:10;11.07;;;5.45;;
26319;SDS011;14024;52.226;5.200;2023-06-10T14:31:39;11.07;;;6.70;;
26319;SDS011;14024;52.226;5.200;2023-06-10T14:34:05;6.30;;;5.30;;
26319;SDS011;14024;52.226;5.200;2023-06-10T14:36:32;9.20;;;5.68;;
26319;SDS011;14024;52.226;5.200;2023-06-10T14:38:58;6.60;;;5.45;;
26319;SDS011;14024;52.226;5.200;2023-06-10T14:41:24;10.73;;;5.40;;
26319;SDS011;14024;52.226;5.200;2023-06-10T14:43:51;6.65;;;5.35;;
26319;SDS011;14024;52.226;5.200;2023-06-10T14:46:17;6.88;;;5.10;;
26319;SDS011;14024;52.226;5.200;2023-06-10T14:48:43;8.45;;;5.13;;
26319;SDS011;14024;52.226;5.200;2023-06-10T14:51:09;8.10;;;5.38;;
26319;SDS011;14024;52.226;5.200;2023-06-10T14:53:35;13.75;;;5.28;;